Moenave, Arizona
Current Conditions -  °F | °C
As of 7:54 AM on Thursday 18 Dec 2014 (Local Time) from KGCN Reporting Station
Overcast Overcast  
Wind Chill: 29°   Ceiling: 6000
Heat Index: 29°   Visibility: 10mi
Dew Point: 28°   Wind: 0mph
Humidity: 96%   Direction: NA
Pressure: 30.11"   Gusts: NA
Location:  35.9808°N, 111.359°W
Report Text: KGCN 181454Z 00000KT 10SM FEW003 OVC060 M02/M02 A3011 RMK AO2 SLP197 I3000 T10171022 53006 $
Loading
Personal Weather Stations






























Interactive Weather Map New forecast layout! Learn more

10-Day Weather Forecast

Advertisements
Track Severe Weather on mobile